Wetterverlauf

Letzte Wetterlage 01.09.2014 15:11
Wetterdiagramm
Tabellarische Darstellung
Datum Temperatur Windchill Feuchte Luftdruck Windrichtung Windstärke Niederschlag
01.09.2014 15:11 15,5 °C 15,5 °C 68 % 1018,4 hPa 0,00 mm
01.09.2014 14:50 15,9 °C 15,9 °C 66 % 1018,4 hPa 0,00 mm
01.09.2014 14:30 16,2 °C 16,2 °C 67 % 1018,4 hPa 0,00 mm
01.09.2014 14:09 16,3 °C 16,3 °C 65 % 1018,4 hPa 0,00 mm
01.09.2014 13:48 16,4 °C 16,4 °C 65 % 1018,4 hPa 0,00 mm
01.09.2014 13:28 15,6 °C 15,6 °C 69 % 1018,4 hPa 0,00 mm
01.09.2014 13:08 15,3 °C 15,3 °C 71 % 1018,4 hPa 0,00 mm
01.09.2014 12:48 15,0 °C 15,0 °C 70 % 1018,4 hPa 0,00 mm
01.09.2014 12:28 15,4 °C 15,4 °C 71 % 1018,4 hPa 0,00 mm
01.09.2014 12:07 14,4 °C 14,4 °C 74 % 1018,4 hPa 0,00 mm
01.09.2014 11:47 15,1 °C 15,1 °C 73 % 1018,4 hPa 0,00 mm
01.09.2014 11:26 14,1 °C 14,1 °C 79 % 1018,4 hPa 0,00 mm
01.09.2014 11:06 13,3 °C 13,3 °C 80 % 1018,4 hPa 0,00 mm
01.09.2014 10:45 13,7 °C 13,7 °C 80 % 1018,4 hPa 0,00 mm
01.09.2014 10:25 13,2 °C 13,2 °C 83 % 1018,4 hPa 0,00 mm
01.09.2014 10:04 12,8 °C 12,8 °C 87 % 1017,4 hPa 0,00 mm
01.09.2014 09:44 12,3 °C 12,3 °C 88 % 1017,4 hPa 0,00 mm
01.09.2014 09:23 12,2 °C 12,2 °C 89 % 1017,4 hPa 0,00 mm
01.09.2014 09:03 11,9 °C 11,9 °C 90 % 1017,4 hPa 0,00 mm
01.09.2014 08:42 11,4 °C 11,4 °C 92 % 1017,4 hPa 0,00 mm
01.09.2014 08:22 9,8 °C 9,8 °C 91 % 1017,4 hPa 0,00 mm
01.09.2014 08:01 8,5 °C 8,5 °C 91 % 1017,4 hPa 0,00 mm
01.09.2014 07:40 8,6 °C 8,6 °C 92 % 1017,4 hPa 0,00 mm
01.09.2014 07:20 8,1 °C 8,1 °C 91 % 1017,4 hPa 0,00 mm
01.09.2014 07:00 8,6 °C 8,6 °C 91 % 1016,4 hPa 0,00 mm
Empfehlen Sie wetter.com
| Mehr
Neue Wetterwarnung

Neue Niederschlagsmeldung
Neue Meldung
Regen Liveticker
    sehr starker Regen/Gewitter
    starker Regen/Gewitter
    mäßiger bis starker Regen
    mäßiger Regen
    leichter bis mäßiger Regen
    kein Regen